createdAt,value
2023-04-06T00:01:37.533Z,64.80
2023-04-06T00:04:08.759Z,64.70
2023-04-06T00:06:45.803Z,65.00
2023-04-06T00:09:13.768Z,64.90
2023-04-06T00:11:41.754Z,64.00
2023-04-06T00:14:12.542Z,63.90
2023-04-06T00:16:43.717Z,57.50
2023-04-06T00:19:11.679Z,53.00
2023-04-06T00:21:47.066Z,56.70
2023-04-06T00:24:27.129Z,63.10
2023-04-06T00:26:55.092Z,64.40
2023-04-06T00:29:26.000Z,65.80
2023-04-06T00:31:53.984Z,65.90
2023-04-06T00:34:21.961Z,62.60
2023-04-06T00:36:57.365Z,65.50
2023-04-06T00:39:25.394Z,65.50
2023-04-06T00:41:54.360Z,65.60
2023-04-06T00:44:25.946Z,65.40
2023-04-06T00:47:05.021Z,65.30
2023-04-06T00:49:34.591Z,65.00
2023-04-06T00:52:04.043Z,62.90
2023-04-06T00:54:32.423Z,55.40
2023-04-06T00:57:05.566Z,61.30
2023-04-06T00:59:36.681Z,65.20
2023-04-06T01:02:04.856Z,64.60
2023-04-06T01:04:36.390Z,65.60
2023-04-06T01:07:08.518Z,65.90
2023-04-06T01:09:36.561Z,66.10
2023-04-06T01:12:04.863Z,66.30
2023-04-06T01:14:32.979Z,66.00
2023-04-06T01:17:12.941Z,65.80
2023-04-06T01:19:45.517Z,65.80
2023-04-06T01:22:20.938Z,65.50
2023-04-06T01:24:48.942Z,65.30
2023-04-06T01:27:16.908Z,62.40
2023-04-06T01:29:44.933Z,61.90
2023-04-06T01:32:13.060Z,60.30
2023-04-06T01:34:53.059Z,59.60
2023-04-06T01:37:22.467Z,60.30
2023-04-06T01:39:50.516Z,64.90
2023-04-06T01:42:21.516Z,65.90
2023-04-06T01:44:49.554Z,63.70
2023-04-06T01:47:20.738Z,63.70
2023-04-06T01:49:51.787Z,65.60
2023-04-06T01:52:27.347Z,66.40
2023-04-06T01:55:02.369Z,66.20
2023-04-06T01:57:33.183Z,64.00
2023-04-06T02:00:01.236Z,64.30
2023-04-06T02:02:29.456Z,66.20
2023-04-06T02:05:03.545Z,65.70
2023-04-06T02:07:34.274Z,66.20
2023-04-06T02:10:14.186Z,66.10
2023-04-06T02:12:42.302Z,63.80
2023-04-06T02:15:11.130Z,65.50
2023-04-06T02:17:39.077Z,66.00
2023-04-06T02:20:08.157Z,64.20
2023-04-06T02:22:38.712Z,66.40
2023-04-06T02:25:09.026Z,66.60
2023-04-06T02:27:37.219Z,66.50
2023-04-06T02:30:05.654Z,66.50
2023-04-06T02:32:36.116Z,66.40
2023-04-06T02:35:04.234Z,66.40
2023-04-06T02:37:43.569Z,66.10
2023-04-06T02:40:13.418Z,65.10
2023-04-06T02:42:44.218Z,65.00
2023-04-06T02:45:12.315Z,65.80
2023-04-06T02:47:40.350Z,65.40
2023-04-06T02:50:08.641Z,65.40
2023-04-06T02:52:36.609Z,65.40
2023-04-06T02:55:05.561Z,65.40
2023-04-06T02:57:34.847Z,65.50
2023-04-06T03:00:14.808Z,65.80
2023-04-06T03:02:42.880Z,65.80
2023-04-06T03:05:11.037Z,66.00
2023-04-06T03:07:38.991Z,65.90
2023-04-06T03:10:07.958Z,65.50
2023-04-06T03:12:37.267Z,62.60
2023-04-06T03:15:06.180Z,65.70
2023-04-06T03:17:37.952Z,66.60
2023-04-06T03:20:06.722Z,66.70
2023-04-06T03:22:34.746Z,65.20
2023-04-06T03:25:09.068Z,64.10
2023-04-06T03:27:38.467Z,63.70
2023-04-06T03:30:08.078Z,65.70
2023-04-06T03:32:36.169Z,67.20
2023-04-06T03:35:10.855Z,67.00
2023-04-06T03:37:44.025Z,67.20
2023-04-06T03:40:12.793Z,67.30
2023-04-06T03:42:42.327Z,67.20
2023-04-06T03:45:13.835Z,67.40
2023-04-06T03:47:44.773Z,65.30
2023-04-06T03:50:13.016Z,67.00
2023-04-06T03:52:43.794Z,66.50
2023-04-06T03:55:23.983Z,66.80
2023-04-06T03:57:56.444Z,66.90
2023-04-06T04:00:24.807Z,63.90
2023-04-06T04:03:02.817Z,66.30
2023-04-06T04:05:31.059Z,66.90
2023-04-06T04:07:59.051Z,66.40
2023-04-06T04:10:29.826Z,66.90
2023-04-06T04:12:59.169Z,67.10
2023-04-06T04:15:29.425Z,66.90
2023-04-06T04:18:04.692Z,67.10
2023-04-06T04:20:32.709Z,67.30
2023-04-06T04:23:06.249Z,64.50
2023-04-06T04:25:34.250Z,64.90
2023-04-06T04:28:06.987Z,66.20
2023-04-06T04:30:34.997Z,67.50
2023-04-06T04:33:05.469Z,67.60
2023-04-06T04:35:33.475Z,67.60
2023-04-06T04:38:01.477Z,66.80
2023-04-06T04:40:34.185Z,67.50
2023-04-06T04:43:02.149Z,67.80
2023-04-06T04:45:31.551Z,67.60
2023-04-06T04:47:59.650Z,67.60
2023-04-06T04:50:27.716Z,66.00
2023-04-06T04:53:08.705Z,67.50
2023-04-06T04:55:37.510Z,67.90
2023-04-06T04:58:05.570Z,67.50
2023-04-06T05:00:34.964Z,67.60
2023-04-06T05:03:06.900Z,67.70
2023-04-06T05:05:38.034Z,67.40
2023-04-06T05:08:06.228Z,67.80
2023-04-06T05:10:35.120Z,66.20
2023-04-06T05:13:03.137Z,66.60
2023-04-06T05:15:31.169Z,67.50
2023-04-06T05:18:00.885Z,67.90
2023-04-06T05:20:29.278Z,63.40
2023-04-06T05:23:00.369Z,63.20
2023-04-06T05:25:31.261Z,62.70
2023-04-06T05:27:59.206Z,66.60
2023-04-06T05:30:27.248Z,63.10
2023-04-06T05:32:58.342Z,65.10
2023-04-06T05:35:27.952Z,68.10
2023-04-06T05:37:55.944Z,68.10
2023-04-06T05:40:23.913Z,68.00
2023-04-06T05:42:52.428Z,67.70
2023-04-06T05:45:21.609Z,67.60
2023-04-06T05:47:49.622Z,67.40
2023-04-06T05:50:17.835Z,67.20
2023-04-06T05:52:49.955Z,66.90
2023-04-06T05:55:26.813Z,66.90
2023-04-06T05:57:54.792Z,56.80
2023-04-06T06:00:23.021Z,54.10
2023-04-06T06:02:51.041Z,54.90
2023-04-06T06:05:26.787Z,56.30
2023-04-06T06:07:56.366Z,57.40
2023-04-06T06:10:30.100Z,57.90
2023-04-06T06:13:04.038Z,59.60
2023-04-06T06:15:38.164Z,60.30
2023-04-06T06:18:06.348Z,60.40
2023-04-06T06:20:37.392Z,61.10
2023-04-06T06:23:12.759Z,61.40
2023-04-06T06:25:43.580Z,61.60
2023-04-06T06:28:11.530Z,61.60
2023-04-06T06:30:41.761Z,61.50
2023-04-06T06:33:09.660Z,61.80
2023-04-06T06:35:37.688Z,61.60
2023-04-06T06:38:06.312Z,61.80
2023-04-06T06:40:35.949Z,62.40
2023-04-06T06:43:03.921Z,62.60
2023-04-06T06:45:34.033Z,62.70
2023-04-06T06:48:02.174Z,60.10
2023-04-06T06:50:33.133Z,56.30
2023-04-06T06:53:04.518Z,57.10
2023-04-06T06:55:45.777Z,56.60
2023-04-06T06:58:13.923Z,56.50
2023-04-06T07:00:41.911Z,53.20
2023-04-06T07:03:10.358Z,53.90
2023-04-06T07:05:41.551Z,57.20
2023-04-06T07:08:09.769Z,59.30
2023-04-06T07:10:44.404Z,61.90
2023-04-06T07:13:12.753Z,64.10
2023-04-06T07:15:40.758Z,65.50
2023-04-06T07:18:08.834Z,67.10
2023-04-06T07:20:36.834Z,67.50
2023-04-06T07:23:17.046Z,68.30
2023-04-06T07:25:51.830Z,68.90
2023-04-06T07:28:28.729Z,69.30
2023-04-06T07:30:56.724Z,69.50
2023-04-06T07:33:30.970Z,69.80
2023-04-06T07:35:59.815Z,70.10
2023-04-06T07:38:36.446Z,70.10
2023-04-06T07:41:06.040Z,70.30
2023-04-06T07:43:34.011Z,70.50
2023-04-06T07:46:04.807Z,71.80
2023-04-06T07:48:35.845Z,72.00
2023-04-06T07:51:15.046Z,72.10
2023-04-06T07:53:43.030Z,71.30
2023-04-06T07:56:16.310Z,71.40
2023-04-06T07:58:44.335Z,71.00
2023-04-06T08:01:12.377Z,70.30
2023-04-06T08:03:46.165Z,69.60
2023-04-06T08:06:14.297Z,70.00
2023-04-06T08:08:45.482Z,70.20
2023-04-06T08:11:14.958Z,70.20
2023-04-06T08:13:42.999Z,70.40
2023-04-06T08:16:11.023Z,71.00
2023-04-06T08:18:39.041Z,69.80
2023-04-06T08:21:11.777Z,70.30
2023-04-06T08:23:42.198Z,69.60
2023-04-06T08:26:14.573Z,69.90
2023-04-06T08:28:46.949Z,70.30
2023-04-06T08:31:18.675Z,70.20
2023-04-06T08:34:10.858Z,70.40
2023-04-06T08:36:41.369Z,64.50
2023-04-06T08:39:12.070Z,57.30
2023-04-06T08:41:43.898Z,69.10
2023-04-06T08:44:17.027Z,64.20
2023-04-06T08:46:45.127Z,72.40
2023-04-06T08:49:20.309Z,65.00
2023-04-06T08:51:52.083Z,71.60
2023-04-06T08:54:20.075Z,71.60
2023-04-06T08:56:53.238Z,72.10
2023-04-06T08:59:25.906Z,71.40
2023-04-06T09:01:57.776Z,71.40
2023-04-06T09:04:25.948Z,71.60
2023-04-06T09:06:54.061Z,70.50
2023-04-06T09:09:24.690Z,58.20
2023-04-06T09:12:00.076Z,69.70
2023-04-06T09:14:38.433Z,72.50
2023-04-06T09:17:09.540Z,72.60
2023-04-06T09:19:50.950Z,47.20
2023-04-06T09:22:22.191Z,73.10
2023-04-06T09:24:54.265Z,72.70
2023-04-06T09:27:34.287Z,50.10
2023-04-06T09:30:07.502Z,72.70
2023-04-06T09:32:46.674Z,63.90
2023-04-06T09:35:14.945Z,56.60
2023-04-06T09:37:43.366Z,56.20
2023-04-06T09:40:12.250Z,54.00
2023-04-06T09:42:43.614Z,56.60
2023-04-06T09:45:12.433Z,57.50
2023-04-06T09:47:42.040Z,56.50
2023-04-06T09:50:13.085Z,58.30
2023-04-06T09:52:44.643Z,58.00
2023-04-06T09:55:16.640Z,53.00
2023-04-06T09:57:57.337Z,55.40
2023-04-06T10:00:30.369Z,53.90
2023-04-06T10:03:06.348Z,53.10
2023-04-06T10:05:44.887Z,53.00
2023-04-06T10:08:13.796Z,52.40
2023-04-06T10:10:42.253Z,51.80
2023-04-06T10:13:13.166Z,53.40
2023-04-06T10:15:41.678Z,52.80
2023-04-06T10:18:18.336Z,52.00
2023-04-06T10:20:59.432Z,51.50
2023-04-06T10:23:34.919Z,51.40
2023-04-06T10:26:17.231Z,51.60
2023-04-06T10:28:48.748Z,52.00
2023-04-06T10:31:25.929Z,52.40
2023-04-06T10:33:57.608Z,52.40
2023-04-06T10:36:27.301Z,51.90
2023-04-06T10:39:05.512Z,51.20
2023-04-06T10:41:37.412Z,51.50
2023-04-06T10:44:07.164Z,51.30
2023-04-06T10:46:36.237Z,51.20
2023-04-06T10:49:13.256Z,51.40
2023-04-06T10:51:41.719Z,53.30
2023-04-06T10:54:14.518Z,54.10
2023-04-06T10:56:42.555Z,54.30
2023-04-06T10:59:14.995Z,54.80
2023-04-06T11:01:47.377Z,54.80
2023-04-06T11:04:18.699Z,55.50
2023-04-06T11:06:56.066Z,55.70
2023-04-06T11:09:28.047Z,55.20
2023-04-06T11:11:56.995Z,53.70
2023-04-06T11:14:27.431Z,56.20
2023-04-06T11:16:55.838Z,51.60
2023-04-06T11:19:40.629Z,57.90
2023-04-06T11:22:09.844Z,57.50
2023-04-06T11:24:40.690Z,56.20
2023-04-06T11:27:11.868Z,56.40
2023-04-06T11:29:50.576Z,53.70
2023-04-06T11:32:25.458Z,55.40
2023-04-06T11:34:56.482Z,55.20
2023-04-06T11:37:28.612Z,56.10
2023-04-06T11:39:58.114Z,55.30
2023-04-06T11:42:27.077Z,51.80
2023-04-06T11:45:10.617Z,49.50
2023-04-06T11:47:39.726Z,50.60
2023-04-06T11:50:11.391Z,51.80
2023-04-06T11:52:45.469Z,52.90
2023-04-06T11:55:20.864Z,54.10
2023-04-06T11:57:52.525Z,53.70
2023-04-06T12:00:23.525Z,53.50
2023-04-06T12:02:51.875Z,53.00
2023-04-06T12:05:20.048Z,53.20
2023-04-06T12:07:48.101Z,52.70
2023-04-06T12:10:19.225Z,52.60
2023-04-06T12:12:47.253Z,52.20
2023-04-06T12:15:17.619Z,53.10
2023-04-06T12:17:47.034Z,52.80
2023-04-06T12:20:25.765Z,52.70
2023-04-06T12:23:04.505Z,52.20
2023-04-06T12:25:32.486Z,53.30
2023-04-06T12:28:11.128Z,52.80
2023-04-06T12:30:42.694Z,52.40
2023-04-06T12:33:12.095Z,52.70
2023-04-06T12:35:40.709Z,52.80
2023-04-06T12:38:11.218Z,53.80
2023-04-06T12:40:40.791Z,53.70
2023-04-06T12:43:11.847Z,53.50
2023-04-06T12:45:39.809Z,52.60
2023-04-06T12:48:14.496Z,53.30
2023-04-06T12:50:56.641Z,54.20
2023-04-06T12:53:30.750Z,55.40
2023-04-06T12:56:13.068Z,53.50
2023-04-06T12:58:42.712Z,54.20
2023-04-06T13:01:17.205Z,54.20
2023-04-06T13:03:52.720Z,53.70
2023-04-06T13:06:20.710Z,53.20
2023-04-06T13:08:50.953Z,53.50
2023-04-06T13:11:19.585Z,52.90
2023-04-06T13:13:47.542Z,52.90
2023-04-06T13:16:18.568Z,55.00
2023-04-06T13:18:49.566Z,53.90
2023-04-06T13:21:18.945Z,55.50
2023-04-06T13:23:49.739Z,55.00
2023-04-06T13:26:17.955Z,55.00
2023-04-06T13:28:45.982Z,54.80
2023-04-06T13:31:14.011Z,54.30
2023-04-06T13:33:44.834Z,54.40
2023-04-06T13:36:17.408Z,57.10
2023-04-06T13:38:47.723Z,57.60
2023-04-06T13:41:21.805Z,54.90
2023-04-06T13:43:49.803Z,55.30
2023-04-06T13:46:20.969Z,57.10
2023-04-06T13:48:49.099Z,58.00
2023-04-06T13:51:19.654Z,58.80
2023-04-06T13:53:51.220Z,57.50
2023-04-06T13:56:19.251Z,59.80
2023-04-06T13:58:47.142Z,60.00
2023-04-06T14:01:15.152Z,60.40
2023-04-06T14:03:48.760Z,59.80
2023-04-06T14:08:52.811Z,57.90
2023-04-06T14:11:23.762Z,60.40
2023-04-06T14:13:51.695Z,60.80
2023-04-06T14:16:20.712Z,61.60
2023-04-06T14:18:52.081Z,61.70
2023-04-06T14:21:20.918Z,62.00
2023-04-06T14:23:48.762Z,62.40
2023-04-06T14:26:18.314Z,54.30
2023-04-06T14:28:49.133Z,63.20
2023-04-06T14:31:21.104Z,64.00
2023-04-06T14:33:56.325Z,61.30
2023-04-06T14:36:31.252Z,63.40
2023-04-06T14:38:59.650Z,63.20
2023-04-06T14:41:35.672Z,62.90
2023-04-06T14:44:07.045Z,63.10
2023-04-06T14:46:35.072Z,63.40
2023-04-06T14:49:03.003Z,63.40
2023-04-06T14:51:31.080Z,63.00
2023-04-06T14:54:18.044Z,64.60
2023-04-06T14:56:47.282Z,64.50
2023-04-06T14:59:15.424Z,63.50
2023-04-06T15:01:46.532Z,53.00
2023-04-06T15:04:17.704Z,65.20
2023-04-06T15:06:48.057Z,64.70
2023-04-06T15:10:14.508Z,64.10
2023-04-06T15:12:43.709Z,64.60
2023-04-06T15:15:12.002Z,63.90
2023-04-06T15:17:39.935Z,64.10
2023-04-06T15:20:19.314Z,64.10
2023-04-06T15:22:53.029Z,64.10
2023-04-06T15:25:27.184Z,64.20
2023-04-06T15:27:56.678Z,64.00
2023-04-06T15:36:29.816Z,64.40
2023-04-06T15:39:00.973Z,64.20
2023-04-06T15:41:44.063Z,64.40
2023-04-06T15:45:16.554Z,64.30
2023-04-06T15:47:46.347Z,64.60
2023-04-06T15:50:17.132Z,64.80
2023-04-06T15:52:53.299Z,65.10
2023-04-06T15:55:21.235Z,64.90
2023-04-06T15:57:49.095Z,65.60
2023-04-06T16:00:19.479Z,65.80
2023-04-06T16:06:08.942Z,66.30
2023-04-06T16:08:41.372Z,66.20
2023-04-06T16:11:09.517Z,66.60
2023-04-06T16:13:41.669Z,66.60
2023-04-06T16:16:17.261Z,65.60
2023-04-06T16:18:59.495Z,66.30
2023-04-06T16:21:28.637Z,63.10
2023-04-06T16:23:58.509Z,63.40
2023-04-06T16:26:28.608Z,64.20
2023-04-06T16:32:58.591Z,62.80
2023-04-06T16:35:35.014Z,65.60
2023-04-06T16:38:16.879Z,66.40
2023-04-06T16:40:44.758Z,66.60
2023-04-06T16:47:05.116Z,66.90
2023-04-06T16:49:53.780Z,66.50
2023-04-06T16:52:21.704Z,66.50
2023-04-06T16:54:52.393Z,66.40
2023-04-06T16:57:51.145Z,66.30
2023-04-06T17:00:39.629Z,66.30
2023-04-06T17:03:13.167Z,66.30
2023-04-06T17:05:42.552Z,66.10
2023-04-06T17:08:18.640Z,66.50
2023-04-06T17:10:59.174Z,66.40
2023-04-06T17:13:30.715Z,66.50
2023-04-06T17:15:58.774Z,66.50
2023-04-06T17:18:30.718Z,66.40
2023-04-06T17:21:05.894Z,67.00
2023-04-06T17:23:39.503Z,67.10
2023-04-06T17:26:08.411Z,67.50
2023-04-06T17:28:42.217Z,67.40
2023-04-06T17:31:11.454Z,67.50
2023-04-06T17:33:39.906Z,67.40
2023-04-06T17:36:11.991Z,67.50
2023-04-06T17:38:43.802Z,67.60
2023-04-06T17:41:14.507Z,67.80
2023-04-06T17:43:48.149Z,68.10
2023-04-06T17:46:23.521Z,68.10
2023-04-06T17:48:53.016Z,68.20
2023-04-06T17:51:22.239Z,68.10
2023-04-06T17:53:50.445Z,68.40
2023-04-06T17:56:24.105Z,68.50
2023-04-06T17:58:54.514Z,68.50
2023-04-06T18:01:22.690Z,68.70
2023-04-06T18:03:51.197Z,68.70
2023-04-06T18:06:26.508Z,68.70
2023-04-06T18:08:57.418Z,68.70
2023-04-06T18:11:25.731Z,68.80
2023-04-06T18:14:02.940Z,68.30
2023-04-06T18:16:36.089Z,68.80
2023-04-06T18:19:07.580Z,69.90
2023-04-06T18:21:39.273Z,69.30
2023-04-06T18:24:27.208Z,70.00
2023-04-06T18:27:03.924Z,70.50
2023-04-06T18:29:36.010Z,70.20
2023-04-06T18:32:03.930Z,70.60
2023-04-06T18:34:31.837Z,71.10
2023-04-06T18:37:01.692Z,71.40
2023-04-06T18:39:32.251Z,71.60
2023-04-06T18:42:05.834Z,70.80
2023-04-06T18:44:33.728Z,70.10
2023-04-06T18:47:01.786Z,71.20
2023-04-06T18:49:33.753Z,72.30
2023-04-06T18:52:06.271Z,69.50
2023-04-06T18:54:34.253Z,73.40
2023-04-06T18:57:05.306Z,71.60
2023-04-06T18:59:36.463Z,70.00
2023-04-06T19:02:04.412Z,73.70
2023-04-06T19:04:35.629Z,72.80
2023-04-06T19:07:07.773Z,70.00
2023-04-06T19:09:41.658Z,71.60
2023-04-06T19:12:09.556Z,73.20
2023-04-06T19:14:39.674Z,73.50
2023-04-06T19:17:22.757Z,70.90
2023-04-06T19:19:50.818Z,72.80
2023-04-06T19:22:20.358Z,72.20
2023-04-06T19:24:49.780Z,73.00
2023-04-06T19:27:28.811Z,74.90
2023-04-06T19:29:56.785Z,74.50
2023-04-06T19:32:25.636Z,73.40
2023-04-06T19:34:56.767Z,75.20
2023-04-06T19:37:26.000Z,74.20
2023-04-06T19:40:07.329Z,71.80
2023-04-06T19:42:35.201Z,75.70
2023-04-06T19:45:12.179Z,72.90
2023-04-06T19:47:40.098Z,74.10
2023-04-06T19:50:11.496Z,73.80
2023-04-06T19:52:41.289Z,73.50
2023-04-06T19:55:15.003Z,76.80
2023-04-06T19:57:42.837Z,74.80
2023-04-06T20:00:11.886Z,76.30
2023-04-06T20:02:46.235Z,74.80
2023-04-06T20:05:16.523Z,75.00
2023-04-06T20:07:51.004Z,76.50
2023-04-06T20:10:20.751Z,74.80
2023-04-06T20:13:01.050Z,76.60
2023-04-06T20:15:29.661Z,75.50
2023-04-06T20:18:00.147Z,76.00
2023-04-06T20:20:28.044Z,75.00
2023-04-06T20:23:12.640Z,75.20
2023-04-06T20:25:46.865Z,73.80
2023-04-06T20:28:14.732Z,73.30
2023-04-06T20:30:42.670Z,75.60
2023-04-06T20:33:18.089Z,74.40
2023-04-06T20:35:46.017Z,73.50
2023-04-06T20:38:15.853Z,76.30
2023-04-06T20:40:50.521Z,74.60
2023-04-06T20:43:20.515Z,75.70
2023-04-06T20:45:51.504Z,75.80
2023-04-06T20:48:26.001Z,74.60
2023-04-06T20:50:56.918Z,74.70
2023-04-06T20:53:26.168Z,74.60
2023-04-06T20:55:58.055Z,77.00
2023-04-06T20:58:43.529Z,77.00
2023-04-06T21:01:15.914Z,77.10
2023-04-06T21:03:47.089Z,76.40
2023-04-06T21:06:18.049Z,76.00
2023-04-06T21:08:47.391Z,75.80
2023-04-06T21:11:21.136Z,76.40
2023-04-06T21:14:03.725Z,77.80
2023-04-06T21:16:31.602Z,77.30
2023-04-06T21:18:59.500Z,76.30
2023-04-06T21:21:27.378Z,76.40
2023-04-06T21:24:00.241Z,77.30
2023-04-06T21:26:28.165Z,77.40
2023-04-06T21:29:08.210Z,77.10
2023-04-06T21:31:48.248Z,75.80
2023-04-06T21:34:16.463Z,76.80
2023-04-06T21:36:47.680Z,77.00
2023-04-06T21:39:26.912Z,75.40
2023-04-06T21:41:56.373Z,75.00
2023-04-06T21:44:24.212Z,76.90
2023-04-06T21:46:52.252Z,77.80
2023-04-06T21:49:22.580Z,77.60
2023-04-06T21:51:56.321Z,77.60
2023-04-06T21:54:33.669Z,76.50
2023-04-06T21:57:04.272Z,77.20
2023-04-06T21:59:32.431Z,77.90
2023-04-06T22:02:06.355Z,77.60
2023-04-06T22:04:52.721Z,77.40
2023-04-06T22:07:23.855Z,78.20
2023-04-06T22:09:55.992Z,77.20
2023-04-06T22:12:23.863Z,77.80
2023-04-06T22:14:54.654Z,78.40
2023-04-06T22:17:25.666Z,78.70
2023-04-06T22:19:56.655Z,79.40
2023-04-06T22:22:28.151Z,79.20
2023-04-06T22:24:58.411Z,79.30
2023-04-06T22:27:28.754Z,78.40
2023-04-06T22:29:57.145Z,79.40
2023-04-06T22:32:37.386Z,79.20
2023-04-06T22:35:07.810Z,78.60
2023-04-06T22:37:42.108Z,78.90
2023-04-06T22:40:12.508Z,79.50
2023-04-06T22:42:40.466Z,79.50
2023-04-06T22:45:09.542Z,79.00
2023-04-06T22:47:37.813Z,78.30
2023-04-06T22:50:10.186Z,79.70
2023-04-06T22:52:38.120Z,79.30
2023-04-06T22:55:09.429Z,79.20
2023-04-06T22:57:38.642Z,79.00
2023-04-06T23:00:08.125Z,79.00
2023-04-06T23:02:42.222Z,78.70
2023-04-06T23:05:10.923Z,79.30
2023-04-06T23:07:41.875Z,79.20
2023-04-06T23:10:14.654Z,79.20
2023-04-06T23:12:49.856Z,78.60
2023-04-06T23:15:20.647Z,78.80
2023-04-06T23:17:48.927Z,79.90
2023-04-06T23:20:19.681Z,80.00
2023-04-06T23:22:50.449Z,79.70
2023-04-06T23:25:18.399Z,79.90
2023-04-06T23:27:46.248Z,80.10
2023-04-06T23:30:18.084Z,80.20
2023-04-06T23:32:51.833Z,80.80
2023-04-06T23:35:19.820Z,81.00
2023-04-06T23:37:52.631Z,80.90
2023-04-06T23:40:20.660Z,81.30
2023-04-06T23:42:57.578Z,81.90
2023-04-06T23:45:36.334Z,82.60
2023-04-06T23:48:13.160Z,82.20
2023-04-06T23:50:41.367Z,82.80
2023-04-06T23:53:12.260Z,83.20
2023-04-06T23:55:43.312Z,85.00
2023-04-06T23:58:13.730Z,84.20
